This is the latest recevied weather packets stored in our database for station/object KI4BSX. If no packets are shown the sender has not sent any weather packets the latest 1 day(s).
| Time | Temp. | Humidity | Pressure | Rain* | Wind** | Luminosity | Snow |
|---|---|---|---|---|---|---|---|
| 1778107047 | 26.67° C | 66% | 1014 hPa | 0 mm | - | - | - |
| 1778106440 | 26.67° C | 65% | 1013.9 hPa | 0 mm | - | - | - |
| 1778104928 | 26.67° C | 65% | 1013.6 hPa | 0 mm | - | - | - |
| 1778104625 | 26.67° C | 65% | 1013.6 hPa | 0 mm | - | - | - |
| 1778103715 | 27.22° C | 64% | 1014 hPa | 0 mm | - | - | - |
| 1778103110 | 27.22° C | 65% | 1013.9 hPa | 0 mm | - | - | - |
| 1778102502 | 27.78° C | 66% | 1014.3 hPa | 0 mm | - | - | - |
| 1778102198 | 27.78° C | 68% | 1014.1 hPa | 0 mm | - | - | - |
| 1778101895 | 27.78° C | 66% | 1014.4 hPa | 0 mm | - | - | - |
| 1778101592 | 27.78° C | 65% | 1014.5 hPa | 0 mm | - | - | - |
| 1778100680 | 28.33° C | 65% | 1014.8 hPa | 0 mm | - | - | - |
| 1778098561 | 26.11° C | 72% | 1014.8 hPa | 0 mm | - | - | - |
| 1778096135 | 25.56° C | 69% | 1015.9 hPa | 0 mm | - | - | - |
| 1778094618 | 25.56° C | 69% | 1016.5 hPa | 0 mm | - | - | - |
| 1778093406 | 25.56° C | 69% | 1016.6 hPa | 0 mm | - | - | - |
| 1778091582 | 26.11° C | 66% | 1016.4 hPa | 0 mm | - | - | - |
| 1778090364 | 26.67° C | 65% | 1016.4 hPa | 0 mm | - | - | - |
| 1778089455 | 25° C | 66% | 1016.5 hPa | 0 mm | - | - | - |
| 1778089152 | 25.56° C | 66% | 1016.6 hPa | 0 mm | - | - | - |
| 1778088546 | 25.56° C | 66% | 1017 hPa | 0 mm | - | - | - |
| 1778087334 | 25.56° C | 67% | 1017.3 hPa | 0 mm | - | - | - |
| 1778086724 | 25.56° C | 70% | 1016.9 hPa | 0 mm | - | - | - |
| 1778085814 | 23.89° C | 74% | 1017 hPa | 0 mm | - | - | - |
| 1778085512 | 23.89° C | 74% | 1017.3 hPa | 0 mm | - | - | - |
| 1778084600 | 23.33° C | 73% | 1018.1 hPa | 0 mm | - | - | - |
* Rain latest hour (hover to see other rain measurements)
** Current wind speed in m/s (hover to see current wind gust speed)